.
WxDataArchive / Data Records for 2009-03-18
2009-03-17 March 2009 2009-03-19

Data Records for Wednesday, 18 March 2009

Time	Temp	Chill	HIndex	Humid	Dewpt	 Wind 	HiWind	WindDir	Rain 	Barom 
-----	----	-----	------	-----	-----	------	------	-------	-----	----- 
00:00	59.2	59.2	59.2	56	43.5	4	10	248	0.00	30.042 
00:05	59.3	59.3	59.3	56	43.6	3	11	248	0.00	30.040 
00:10	59.3	59.3	59.3	56	43.6	4	7	248	0.00	30.040 
00:15	59.2	59.2	59.2	57	44.0	3	9	248	0.00	30.037 
00:20	59.3	59.3	59.3	57	44.1	4	9	248	0.00	30.037 
00:25	59.3	59.3	59.3	57	44.1	4	9	270	0.00	30.037 
00:30	59.2	59.2	59.2	57	44.0	3	9	248	0.00	30.038 
00:35	59.2	59.2	59.2	57	44.0	3	6	248	0.00	30.037 
00:40	59.0	59.0	59.0	57	43.8	3	9	248	0.00	30.036 
00:45	59.0	59.0	59.0	57	43.8	4	13	248	0.00	30.033 
00:50	59.0	59.0	59.0	57	43.8	3	9	248	0.00	30.033 
00:55	58.9	58.9	58.9	57	43.7	2	7	248	0.00	30.033 
01:00	58.9	58.9	58.9	58	44.1	3	7	248	0.00	30.033 
01:05	58.7	58.7	58.7	58	44.0	3	7	248	0.00	30.031 
01:10	58.7	58.7	58.7	58	44.0	3	7	248	0.00	30.030 
01:15	58.6	58.6	58.6	58	43.9	2	5	248	0.00	30.030 
01:20	58.4	58.4	58.4	58	43.7	3	9	270	0.00	30.032 
01:25	58.3	58.3	58.3	58	43.6	3	6	248	0.00	30.032 
01:30	58.1	58.1	58.1	59	43.8	3	6	248	0.00	30.031 
01:35	58.1	58.1	58.1	59	43.8	3	9	248	0.00	30.032 
01:40	58.1	58.1	58.1	59	43.8	4	9	270	0.00	30.032 
01:45	58.1	58.1	58.1	59	43.8	3	9	248	0.00	30.032 
01:50	58.0	58.0	58.0	59	43.8	3	9	248	0.00	30.032 
01:55	57.8	57.8	57.8	59	43.6	2	6	248	0.00	30.032 
02:00	57.5	57.5	57.5	60	43.7	2	4	248	0.00	30.031 
02:05	57.3	57.3	57.3	60	43.5	2	6	248	0.00	30.030 
02:10	57.0	57.0	57.0	61	43.7	3	6	248	0.00	30.031 
02:15	56.9	56.9	56.9	62	44.0	3	9	248	0.00	30.031 
02:20	56.6	56.6	56.6	62	43.7	3	6	248	0.00	30.031 
02:25	56.5	56.5	56.5	62	43.6	2	7	248	0.00	30.030 
02:30	56.3	56.3	56.3	63	43.9	2	5	270	0.00	30.028 
02:35	56.2	56.2	56.2	63	43.8	3	7	248	0.00	30.027 
02:40	56.0	56.0	56.0	63	43.6	2	5	248	0.00	30.025 
02:45	55.7	55.7	55.7	64	43.7	2	7	270	0.00	30.023 
02:50	55.7	55.7	55.7	64	43.7	3	7	248	0.00	30.024 
02:55	55.6	55.6	55.6	64	43.6	1	6	248	0.00	30.022 
03:00	55.4	55.4	55.4	65	43.8	2	7	248	0.00	30.021 
03:05	55.3	55.3	55.3	65	43.7	3	7	248	0.00	30.019 
03:10	55.1	55.1	55.1	65	43.5	2	6	248	0.00	30.019 
03:15	55.1	55.1	55.1	65	43.5	2	6	248	0.00	30.018 
03:20	55.0	55.0	55.0	65	43.5	2	5	248	0.00	30.018 
03:25	55.0	55.0	55.0	65	43.5	2	5	248	0.00	30.019 
03:30	55.0	55.0	55.0	65	43.5	2	5	270	0.00	30.024 
03:35	55.0	55.0	55.0	65	43.5	3	10	248	0.00	30.022 
03:40	55.1	55.1	55.1	65	43.5	3	11	248	0.00	30.019 
03:45	55.3	55.3	55.3	65	43.7	3	9	248	0.00	30.021 
03:50	55.1	55.1	55.1	65	43.5	3	10	248	0.00	30.021 
03:55	55.1	55.1	55.1	65	43.5	3	6	248	0.00	30.021 
04:00	55.0	55.0	55.0	65	43.5	3	7	248	0.00	30.023 
04:05	54.8	54.8	54.8	65	43.3	3	10	248	0.00	30.026 
04:10	54.7	54.7	54.7	66	43.6	2	6	248	0.00	30.027 
04:15	54.5	54.5	54.5	66	43.4	4	9	248	0.00	30.023 
04:20	54.4	54.4	54.4	67	43.7	2	5	248	0.00	30.023 
04:25	54.4	54.4	54.4	67	43.7	3	8	248	0.00	30.026 
04:30	54.2	54.2	54.2	67	43.5	2	5	248	0.00	30.025 
04:35	54.1	54.1	54.1	67	43.4	2	6	248	0.00	30.028 
04:40	53.9	53.9	53.9	68	43.6	1	3	270	0.00	30.028 
04:45	53.8	53.8	53.8	68	43.5	2	5	248	0.00	30.024 
04:50	53.6	53.6	53.6	69	43.7	2	6	248	0.00	30.027 
04:55	53.5	53.5	53.5	69	43.6	1	4	248	0.00	30.032 
05:00	53.2	53.2	53.2	69	43.3	0	2	248	0.00	30.035 
05:05	53.1	53.1	53.1	70	43.6	2	5	248	0.00	30.035 
05:10	53.1	53.1	53.1	70	43.6	1	5	248	0.00	30.035 
05:15	52.9	52.9	52.9	70	43.4	2	5	270	0.00	30.034 
05:20	52.9	52.9	52.9	70	43.4	1	4	270	0.00	30.034 
05:25	52.9	52.9	52.9	71	43.8	1	4	248	0.00	30.034 
05:30	52.9	52.9	52.9	71	43.8	2	5	248	0.00	30.035 
05:35	52.8	52.8	52.8	71	43.7	1	4	248	0.00	30.035 
05:40	52.8	52.8	52.8	71	43.7	2	9	248	0.00	30.034 
05:45	52.8	52.8	52.8	71	43.7	2	5	248	0.00	30.035 
05:50	52.8	52.8	52.8	71	43.7	2	5	248	0.00	30.035 
05:55	52.8	52.8	52.8	71	43.7	2	9	248	0.00	30.036 
06:00	52.8	52.8	52.8	71	43.7	2	4	248	0.00	30.037 
06:05	52.6	52.6	52.6	71	43.5	2	5	248	0.00	30.039 
06:10	52.6	52.6	52.6	72	43.8	2	6	248	0.00	30.039 
06:15	52.6	52.6	52.6	72	43.8	3	10	270	0.00	30.039 
06:20	52.6	52.6	52.6	72	43.8	3	6	248	0.00	30.039 
06:25	52.6	52.6	52.6	72	43.8	1	4	248	0.00	30.041 
06:30	52.5	52.5	52.5	72	43.7	2	6	225	0.00	30.044 
06:35	52.3	52.3	52.3	72	43.5	2	5	270	0.00	30.044 
06:40	52.2	52.2	52.2	73	43.8	1	7	248	0.00	30.047 
06:45	52.0	52.0	52.0	73	43.6	2	6	248	0.00	30.048 
06:50	52.0	52.0	52.0	73	43.6	2	4	248	0.00	30.048 
06:55	51.9	51.9	51.9	73	43.5	2	7	248	0.00	30.048 
07:00	51.9	51.9	51.9	73	43.5	2	5	248	0.00	30.052 
07:05	51.7	51.7	51.7	74	43.7	1	3	248	0.00	30.056 
07:10	51.6	51.6	51.6	74	43.6	1	4	248	0.00	30.057 
07:15	51.6	51.6	51.6	74	43.6	1	3	248	0.00	30.057 
07:20	51.6	51.6	51.6	74	43.6	2	4	248	0.00	30.058 
07:25	51.7	51.7	51.7	74	43.7	1	3	248	0.00	30.060 
07:30	51.9	51.9	51.9	74	43.9	1	4	248	0.00	30.061 
07:35	52.0	52.0	52.0	74	44.0	1	2	248	0.00	30.062 
07:40	52.2	52.2	52.2	73	43.8	1	4	248	0.00	30.064 
07:45	52.5	52.5	52.5	73	44.1	1	4	248	0.00	30.068 
07:50	52.5	52.5	52.5	73	44.1	1	3	248	0.00	30.068 
07:55	52.5	52.5	52.5	73	44.1	1	5	248	0.00	30.068 
08:00	52.6	52.6	52.6	73	44.2	1	5	248	0.00	30.070 
08:05	52.6	52.6	52.6	73	44.2	1	5	248	0.00	30.072 
08:10	52.8	52.8	52.8	73	44.4	1	4	248	0.00	30.073 
08:15	52.9	52.9	52.9	72	44.1	1	4	248	0.00	30.074 
08:20	53.2	53.2	53.2	72	44.4	1	5	248	0.00	30.074 
08:25	53.6	53.6	53.6	71	44.4	1	3	248	0.00	30.073 
08:30	53.9	53.9	53.9	71	44.7	0	1	248	0.00	30.074 
08:35	54.1	54.1	54.1	70	44.5	1	2	248	0.00	30.074 
08:40	54.2	54.2	54.2	70	44.6	1	3	248	0.00	30.075 
08:45	54.2	54.2	54.2	70	44.6	1	5	248	0.00	30.072 
08:50	54.5	54.5	54.5	70	44.9	1	4	248	0.00	30.072 
08:55	54.7	54.7	54.7	69	44.7	1	3	248	0.00	30.069 
09:00	55.0	55.0	55.0	69	45.0	1	4	248	0.00	30.068 
09:05	55.0	55.0	55.0	69	45.0	1	4	248	0.00	30.070 
09:10	55.1	55.1	55.1	69	45.1	1	4	248	0.00	30.072 
09:15	55.4	55.4	55.4	69	45.4	0	3	248	0.00	30.072 
09:20	55.7	55.7	55.7	69	45.7	1	6	248	0.00	30.070 
09:25	56.0	56.0	56.0	69	46.0	2	5	248	0.00	30.070 
09:30	56.5	56.5	56.5	69	46.5	2	6	248	0.00	30.070 
09:35	56.9	56.9	56.9	67	46.1	2	5	292	0.00	30.071 
09:40	56.9	56.9	56.9	67	46.1	2	5	270	0.00	30.073 
09:45	56.9	56.9	56.9	67	46.1	3	5	270	0.00	30.073 
09:50	57.0	57.0	57.0	67	46.2	2	6	270	0.00	30.073 
09:55	57.0	57.0	57.0	67	46.2	2	4	270	0.00	30.073 
10:00	56.9	56.9	56.9	67	46.1	2	5	270	0.00	30.074 
10:05	57.0	57.0	57.0	67	46.2	1	3	270	0.00	30.073 
10:10	57.5	57.5	57.5	67	46.6	1	9	225	0.00	30.073 
10:15	57.8	57.8	57.8	66	46.5	2	4	270	0.00	30.073 
10:20	58.0	58.0	58.0	66	46.7	1	3	270	0.00	30.072 
10:25	57.8	57.8	57.8	66	46.5	1	3	292	0.00	30.072 
10:30	57.6	57.6	57.6	67	46.7	1	4	248	0.00	30.069 
10:35	57.8	57.8	57.8	66	46.5	1	4	248	0.00	30.068 
10:40	58.4	58.4	58.4	66	47.1	1	3	248	0.00	30.070 
10:45	58.7	58.7	58.7	65	47.0	1	4	248	0.00	30.070 
10:50	58.9	58.9	58.9	64	46.7	1	4	270	0.00	30.070 
10:55	59.2	59.2	59.2	65	47.4	1	3	248	0.00	30.070 
11:00	59.5	59.5	59.5	64	47.3	1	3	248	0.00	30.069 
11:05	59.3	59.3	59.3	64	47.1	1	4	270	0.00	30.069 
11:10	59.5	59.5	59.5	65	47.7	1	3	248	0.00	30.066 
11:15	59.9	59.9	59.9	63	47.3	1	3	338	0.00	30.064 
11:20	59.9	59.9	59.9	62	46.8	1	3	0	0.00	30.064 
11:25	59.5	59.5	59.5	63	46.9	1	3	292	0.00	30.061 
11:30	59.9	59.9	59.9	65	48.1	1	6	292	0.00	30.057 
11:35	60.4	60.4	60.4	62	47.3	1	3	248	0.00	30.056 
11:40	60.2	60.2	60.2	63	47.6	0	2	248	0.00	30.055 
11:45	60.5	60.5	60.5	62	47.4	1	3	248	0.00	30.053 
11:50	60.7	60.7	60.7	62	47.6	1	3	338	0.00	30.053 
11:55	60.9	60.9	60.9	62	47.8	0	1	338	0.00	30.052 
12:00	60.9	60.9	60.9	61	47.4	2	5	338	0.00	30.052 
12:05	60.7	60.7	60.7	61	47.2	1	5	248	0.00	30.052 
12:10	61.0	61.0	61.0	63	48.3	1	3	248	0.00	30.050 
12:15	61.6	61.6	61.6	62	48.4	1	3	248	0.00	30.049 
12:20	62.1	62.1	62.1	60	48.0	1	3	270	0.00	30.045 
12:25	62.6	62.6	62.6	58	47.6	1	5	248	0.00	30.045 
12:30	62.7	62.7	62.7	59	48.2	1	2	248	0.00	30.045 
12:35	62.7	62.7	62.7	61	49.1	1	3	270	0.00	30.045 
12:40	63.1	63.1	63.1	58	48.1	1	4	0	0.00	30.047 
12:45	63.4	63.4	63.4	58	48.4	1	3	248	0.00	30.049 
12:50	63.5	63.5	63.5	58	48.5	1	3	248	0.00	30.049 
12:55	64.0	64.0	64.0	56	48.0	1	3	292	0.00	30.049 
13:00	64.3	64.3	64.3	57	48.7	1	5	0	0.00	30.049 
13:05	64.2	64.2	64.2	55	47.7	1	5	22	0.00	30.050 
13:10	63.9	63.9	63.9	55	47.4	1	2	338	0.00	30.049 
13:15	63.9	63.9	63.9	55	47.4	1	4	338	0.00	30.049 
13:20	64.0	64.0	64.0	55	47.5	1	3	45	0.00	30.050 
13:25	64.0	64.0	64.0	54	47.0	1	7	0	0.00	30.048 
13:30	63.5	63.5	63.5	54	46.6	2	5	338	0.00	30.046 
13:35	63.1	63.1	63.1	53	45.7	2	4	0	0.00	30.046 
13:40	62.9	62.9	62.9	54	46.0	1	5	45	0.00	30.046 
13:45	63.2	63.2	63.2	54	46.3	1	2	45	0.00	30.047 
13:50	62.6	62.6	62.6	49	43.2	2	5	22	0.00	30.046 
13:55	61.8	61.8	61.8	50	43.0	2	5	22	0.00	30.048 
14:00	61.3	61.3	61.3	50	42.5	2	7	338	0.00	30.052 
14:05	60.7	60.7	60.7	51	42.5	2	9	338	0.00	30.055 
14:10	59.9	59.9	59.9	50	41.2	2	5	0	0.00	30.059 
14:15	59.3	59.3	59.3	50	40.7	2	6	0	0.00	30.063 
14:20	58.4	58.4	58.4	50	39.8	1	4	0	0.00	30.064 
14:25	57.8	57.8	57.8	51	39.8	1	5	22	0.00	30.068 
14:30	56.9	56.9	56.9	50	38.5	2	7	315	0.00	30.068 
14:35	56.3	56.3	56.3	50	37.9	1	4	22	0.00	30.073 
14:40	55.7	55.7	55.7	50	37.3	1	4	338	0.00	30.073 
14:45	55.3	55.3	55.3	48	35.9	1	6	292	0.00	30.079 
14:50	54.5	54.5	54.5	49	35.7	2	6	338	0.00	30.082 
14:55	53.5	53.5	53.5	52	36.3	2	5	0	0.00	30.082 
15:00	52.8	52.8	52.8	54	36.6	1	4	338	0.00	30.081 
15:05	52.3	52.3	52.3	58	38.0	0	3	338	0.00	30.088 
15:10	51.9	51.9	51.9	62	39.3	0	2	0	0.00	30.087 
15:15	50.8	50.8	50.8	67	40.2	2	6	0	0.00	30.095 
15:20	49.6	49.6	49.6	72	40.9	1	5	22	0.01	30.099 
15:25	48.8	48.8	48.8	74	40.9	0	2	338	0.00	30.099 
15:30	48.2	48.2	48.2	76	41.0	1	3	0	0.00	30.105 
15:35	47.9	47.9	47.9	78	41.4	0	2	0	0.00	30.107 
15:40	47.7	47.7	47.7	79	41.5	0	2	0	0.00	30.101 
15:45	47.7	47.7	47.7	81	42.2	0	2	0	0.01	30.114 
15:50	47.6	47.6	47.6	82	42.4	0	3	0	0.00	30.120 
15:55	47.4	47.4	47.4	83	42.5	0	1	292	0.02	30.116 
16:00	47.1	47.1	47.1	84	42.5	0	1	292	0.00	30.104 
16:05	46.8	46.8	46.8	85	42.5	0	2	292	0.01	30.103 
16:10	46.7	46.7	46.7	84	42.1	0	1	292	0.00	30.109 
16:15	46.5	46.5	46.5	84	41.9	0	2	22	0.00	30.114 
16:20	46.7	46.7	46.7	85	42.4	0	1	0	0.00	30.117 
16:25	46.7	46.7	46.7	85	42.4	0	1	0	0.00	30.108 
16:30	46.7	46.7	46.7	85	42.4	0	1	0	0.01	30.103 
16:35	46.7	46.7	46.7	86	42.7	0	0	---	0.01	30.106 
16:40	46.7	46.7	46.7	87	43.0	0	1	0	0.02	30.108 
16:45	46.7	46.7	46.7	87	43.0	0	0	---	0.02	30.100 
16:50	46.8	46.8	46.8	88	43.4	0	1	0	0.01	30.094 
16:55	46.8	46.8	46.8	88	43.4	0	2	0	0.00	30.096 
17:00	47.0	47.0	47.0	88	43.6	1	3	0	0.00	30.085 
17:05	47.0	47.0	47.0	88	43.6	0	3	112	0.00	30.085 
17:10	47.1	47.1	47.1	87	43.4	0	1	112	0.00	30.084 
17:15	47.0	47.0	47.0	85	42.7	0	1	112	0.00	30.085 
17:20	47.1	47.1	47.1	85	42.8	0	0	---	0.00	30.087 
17:25	47.3	47.3	47.3	86	43.3	0	0	---	0.00	30.090 
17:30	47.3	47.3	47.3	87	43.6	0	0	---	0.00	30.088 
17:35	47.3	47.3	47.3	87	43.6	0	0	---	0.00	30.094 
17:40	47.4	47.4	47.4	88	44.0	0	0	---	0.01	30.097 
17:45	47.4	47.4	47.4	88	44.0	0	0	---	0.00	30.100 
17:50	47.4	47.4	47.4	88	44.0	0	0	---	0.00	30.101 
17:55	47.4	47.4	47.4	88	44.0	0	0	---	0.00	30.109 
18:00	47.6	47.6	47.6	89	44.5	0	0	---	0.00	30.115 
18:05	47.7	47.7	47.7	89	44.6	0	1	112	0.00	30.118 
18:10	47.6	47.6	47.6	89	44.5	0	0	---	0.00	30.114 
18:15	47.6	47.6	47.6	89	44.5	0	0	---	0.00	30.116 
18:20	47.4	47.4	47.4	89	44.3	0	1	112	0.00	30.119 
18:25	47.4	47.4	47.4	89	44.3	0	0	---	0.00	30.119 
18:30	47.4	47.4	47.4	90	44.6	0	1	112	0.00	30.126 
18:35	47.4	47.4	47.4	90	44.6	0	0	---	0.00	30.126 
18:40	47.3	47.3	47.3	90	44.5	0	2	112	0.00	30.131 
18:45	47.4	47.4	47.4	89	44.3	1	12	292	0.00	30.132 
18:50	47.3	47.3	47.3	88	43.9	0	2	292	0.00	30.131 
18:55	47.3	47.3	47.3	86	43.3	0	1	292	0.00	30.132 
19:00	47.4	47.4	47.4	85	43.1	0	1	292	0.00	30.133 
19:05	47.4	47.4	47.4	85	43.1	0	1	292	0.00	30.132 
19:10	47.4	47.4	47.4	85	43.1	0	1	292	0.00	30.131 
19:15	47.3	47.3	47.3	85	43.0	0	0	---	0.00	30.130 
19:20	47.1	47.1	47.1	84	42.5	0	1	292	0.00	30.129 
19:25	47.0	47.0	47.0	84	42.4	0	1	292	0.00	30.128 
19:30	46.8	46.8	46.8	83	41.9	0	0	---	0.00	30.126 
19:35	46.7	46.7	46.7	83	41.8	0	0	---	0.00	30.126 
19:40	46.7	46.7	46.7	82	41.5	0	0	---	0.00	30.124 
19:45	46.5	46.5	46.5	83	41.6	0	0	---	0.00	30.122 
19:50	46.4	46.4	46.4	84	41.8	0	0	---	0.00	30.121 
19:55	46.1	46.1	46.1	84	41.5	0	0	---	0.00	30.124 
20:00	46.0	46.0	46.0	84	41.4	0	0	---	0.00	30.128 
20:05	45.8	45.8	45.8	85	41.6	0	0	---	0.00	30.128 
20:10	45.8	45.8	45.8	86	41.9	0	0	---	0.00	30.128 
20:15	45.7	45.7	45.7	87	42.1	0	0	---	0.00	30.128 
20:20	45.7	45.7	45.7	87	42.1	0	0	---	0.00	30.131 
20:25	45.8	45.8	45.8	88	42.5	0	0	---	0.00	30.132 
20:30	45.8	45.8	45.8	89	42.7	0	0	---	0.00	30.134 
20:35	46.0	46.0	46.0	89	42.9	0	0	---	0.00	30.136 
20:40	46.1	46.1	46.1	89	43.0	0	0	---	0.00	30.137 
20:45	46.1	46.1	46.1	89	43.0	0	1	292	0.00	30.139 
20:50	46.1	46.1	46.1	88	42.7	0	0	---	0.00	30.139 
20:55	46.2	46.2	46.2	85	41.9	0	1	292	0.00	30.135 
21:00	46.5	46.5	46.5	82	41.3	0	0	---	0.00	30.141 
21:05	46.8	46.8	46.8	81	41.3	0	1	292	0.00	30.138 
21:10	47.0	47.0	47.0	79	40.8	0	1	292	0.00	30.138 
21:15	47.3	47.3	47.3	77	40.5	0	1	292	0.00	30.138 
21:20	47.3	47.3	47.3	77	40.5	0	1	292	0.00	30.135 
21:25	47.4	47.4	47.4	74	39.5	0	1	292	0.00	30.137 
21:30	47.4	47.4	47.4	73	39.2	0	1	292	0.00	30.140 
21:35	47.6	47.6	47.6	72	39.0	0	1	315	0.00	30.143 
21:40	47.6	47.6	47.6	71	38.7	0	2	315	0.00	30.144 
21:45	47.7	47.7	47.7	70	38.4	0	1	315	0.00	30.145 
21:50	47.7	47.7	47.7	69	38.0	0	1	315	0.00	30.146 
21:55	47.6	47.6	47.6	70	38.3	0	1	315	0.00	30.146 
22:00	47.6	47.6	47.6	69	37.9	0	3	315	0.00	30.145 
22:05	47.6	47.6	47.6	69	37.9	0	1	315	0.00	30.142 
22:10	47.6	47.6	47.6	69	37.9	0	1	315	0.00	30.143 
22:15	47.4	47.4	47.4	68	37.4	0	2	315	0.00	30.148 
22:20	47.4	47.4	47.4	67	37.0	0	2	315	0.00	30.150 
22:25	47.4	47.4	47.4	66	36.6	0	2	315	0.00	30.153 
22:30	47.4	47.4	47.4	66	36.6	0	1	315	0.00	30.149 
22:35	47.3	47.3	47.3	67	36.9	0	1	315	0.00	30.150 
22:40	47.1	47.1	47.1	65	35.9	0	1	315	0.00	30.153 
22:45	47.3	47.3	47.3	63	35.4	0	2	315	0.00	30.153 
22:50	47.1	47.1	47.1	63	35.2	0	1	315	0.00	30.154 
22:55	47.0	47.0	47.0	64	35.5	0	0	---	0.00	30.154 
23:00	46.8	46.8	46.8	65	35.7	0	1	315	0.00	30.151 
23:05	46.7	46.7	46.7	63	34.8	0	1	315	0.00	30.149 
23:10	46.5	46.5	46.5	63	34.6	0	1	315	0.00	30.148 
23:15	46.4	46.4	46.4	63	34.5	0	1	315	0.00	30.148 
23:20	46.2	46.2	46.2	64	34.7	0	0	---	0.00	30.148 
23:25	46.1	46.1	46.1	63	34.2	0	1	315	0.00	30.147 
23:30	46.0	46.0	46.0	62	33.7	0	2	315	0.00	30.148 
23:35	46.0	46.0	46.0	61	33.3	0	0	---	0.00	30.150 
23:40	45.8	45.8	45.8	61	33.1	0	2	315	0.00	30.154 
23:45	45.7	45.7	45.7	61	33.0	0	0	---	0.00	30.149 
23:50	45.5	45.5	45.5	61	32.8	0	0	---	0.00	30.148 
23:55	45.5	45.5	45.5	61	32.8	0	0	---	0.00	30.147 

CoCoRaHS
IN-AL-39
A2 Web Hosting
Creative Commons License
GoDaddy
search engine by freefind advanced

loaded 2018-11-16 00:08:08 • last modified 2010-11-18 10:43:29
Privacy PolicyDisclaimer
• wx.awcolley.com is powered by PmWiki v.2002016 •
• all content (unless otherwise noted) © 2018 A W Colley